sensor_id;sensor_type;location;lat;lon;timestamp;temperature;humidity
10336;DHT22;5213;53.548;9.930;2023-08-17T06:08:28;15.70;99.90
10336;DHT22;5213;53.548;9.930;2023-08-17T06:10:55;15.80;99.90
10336;DHT22;5213;53.548;9.930;2023-08-17T06:13:20;15.70;99.90
10336;DHT22;5213;53.548;9.930;2023-08-17T06:15:46;16.20;99.90
10336;DHT22;5213;53.548;9.930;2023-08-17T06:18:12;15.60;1.00
10336;DHT22;5213;53.548;9.930;2023-08-17T06:20:37;15.50;1.00
10336;DHT22;5213;53.548;9.930;2023-08-17T06:23:03;15.60;92.50
10336;DHT22;5213;53.548;9.930;2023-08-17T06:25:29;15.60;99.90
10336;DHT22;5213;53.548;9.930;2023-08-17T06:27:55;15.60;1.00
10336;DHT22;5213;53.548;9.930;2023-08-17T06:30:21;15.60;99.90
10336;DHT22;5213;53.548;9.930;2023-08-17T06:32:46;15.60;99.90
10336;DHT22;5213;53.548;9.930;2023-08-17T06:35:12;15.70;99.90
10336;DHT22;5213;53.548;9.930;2023-08-17T06:37:38;15.60;99.90
10336;DHT22;5213;53.548;9.930;2023-08-17T06:40:04;15.60;99.90
10336;DHT22;5213;53.548;9.930;2023-08-17T06:42:34;15.60;99.90
10336;DHT22;5213;53.548;9.930;2023-08-17T06:45:00;15.80;99.90
10336;DHT22;5213;53.548;9.930;2023-08-17T06:47:26;15.60;99.90
10336;DHT22;5213;53.548;9.930;2023-08-17T06:49:51;15.60;99.90
10336;DHT22;5213;53.548;9.930;2023-08-17T06:52:17;15.60;99.90
10336;DHT22;5213;53.548;9.930;2023-08-17T06:54:42;15.70;99.90
10336;DHT22;5213;53.548;9.930;2023-08-17T06:57:08;15.70;99.90
10336;DHT22;5213;53.548;9.930;2023-08-17T06:59:34;15.70;99.90
10336;DHT22;5213;53.548;9.930;2023-08-17T07:02:00;15.60;99.90
10336;DHT22;5213;53.548;9.930;2023-08-17T07:04:26;15.80;99.90
10336;DHT22;5213;53.548;9.930;2023-08-17T07:06:52;15.70;99.90
10336;DHT22;5213;53.548;9.930;2023-08-17T07:09:17;15.70;99.90
10336;DHT22;5213;53.548;9.930;2023-08-17T07:11:44;15.80;99.90
10336;DHT22;5213;53.548;9.930;2023-08-17T07:14:10;15.50;99.90
10336;DHT22;5213;53.548;9.930;2023-08-17T07:16:35;15.50;99.90
10336;DHT22;5213;53.548;9.930;2023-08-17T07:19:02;15.60;99.90
10336;DHT22;5213;53.548;9.930;2023-08-17T07:21:27;15.70;99.90
10336;DHT22;5213;53.548;9.930;2023-08-17T07:23:54;15.60;99.90
10336;DHT22;5213;53.548;9.930;2023-08-17T07:26:20;15.50;99.90
10336;DHT22;5213;53.548;9.930;2023-08-17T07:28:47;15.40;99.90
10336;DHT22;5213;53.548;9.930;2023-08-17T07:31:13;15.50;99.90
10336;DHT22;5213;53.548;9.930;2023-08-17T07:33:39;15.40;99.90
10336;DHT22;5213;53.548;9.930;2023-08-17T07:36:05;15.40;99.90
10336;DHT22;5213;53.548;9.930;2023-08-17T07:38:30;15.50;99.90
10336;DHT22;5213;53.548;9.930;2023-08-17T07:40:56;15.50;99.90
10336;DHT22;5213;53.548;9.930;2023-08-17T07:43:22;15.50;99.90
10336;DHT22;5213;53.548;9.930;2023-08-17T07:45:57;15.40;99.90
10336;DHT22;5213;53.548;9.930;2023-08-17T07:48:22;15.30;99.90
10336;DHT22;5213;53.548;9.930;2023-08-17T07:50:52;15.30;99.90
10336;DHT22;5213;53.548;9.930;2023-08-17T07:53:18;15.40;99.90
10336;DHT22;5213;53.548;9.930;2023-08-17T07:55:44;15.20;99.90
10336;DHT22;5213;53.548;9.930;2023-08-17T07:58:10;15.20;99.90
10336;DHT22;5213;53.548;9.930;2023-08-17T08:00:36;15.20;99.90
10336;DHT22;5213;53.548;9.930;2023-08-17T08:03:01;15.20;99.90
10336;DHT22;5213;53.548;9.930;2023-08-17T08:05:27;15.10;99.90
10336;DHT22;5213;53.548;9.930;2023-08-17T08:07:53;15.20;99.90
10336;DHT22;5213;53.548;9.930;2023-08-17T08:10:19;15.40;99.90
10336;DHT22;5213;53.548;9.930;2023-08-17T08:12:44;15.40;99.90
10336;DHT22;5213;53.548;9.930;2023-08-17T08:15:10;15.30;99.90
10336;DHT22;5213;53.548;9.930;2023-08-17T08:17:36;15.40;99.90
10336;DHT22;5213;53.548;9.930;2023-08-17T08:20:02;15.50;99.90
10336;DHT22;5213;53.548;9.930;2023-08-17T08:22:28;15.40;99.90
10336;DHT22;5213;53.548;9.930;2023-08-17T08:24:54;15.50;99.90
10336;DHT22;5213;53.548;9.930;2023-08-17T08:27:19;15.50;99.90
10336;DHT22;5213;53.548;9.930;2023-08-17T08:29:45;15.60;99.90
10336;DHT22;5213;53.548;9.930;2023-08-17T08:32:10;15.60;99.90
10336;DHT22;5213;53.548;9.930;2023-08-17T08:34:36;15.40;99.90
10336;DHT22;5213;53.548;9.930;2023-08-17T08:37:02;15.50;99.90
10336;DHT22;5213;53.548;9.930;2023-08-17T08:39:27;15.60;99.90
10336;DHT22;5213;53.548;9.930;2023-08-17T08:41:53;15.60;99.90
10336;DHT22;5213;53.548;9.930;2023-08-17T08:44:20;15.60;99.90
10336;DHT22;5213;53.548;9.930;2023-08-17T08:46:45;15.50;99.90
10336;DHT22;5213;53.548;9.930;2023-08-17T08:49:12;15.30;99.90
10336;DHT22;5213;53.548;9.930;2023-08-17T08:51:43;15.40;99.90
10336;DHT22;5213;53.548;9.930;2023-08-17T08:54:13;15.40;99.90
10336;DHT22;5213;53.548;9.930;2023-08-17T08:56:41;15.30;99.90
10336;DHT22;5213;53.548;9.930;2023-08-17T08:59:08;15.30;1.00
10336;DHT22;5213;53.548;9.930;2023-08-17T09:01:34;15.30;1.00
10336;DHT22;5213;53.548;9.930;2023-08-17T09:04:00;15.30;99.90
10336;DHT22;5213;53.548;9.930;2023-08-17T09:06:27;15.40;34.10
10336;DHT22;5213;53.548;9.930;2023-08-17T09:08:55;15.40;1.00
10336;DHT22;5213;53.548;9.930;2023-08-17T09:11:22;15.50;1.00
10336;DHT22;5213;53.548;9.930;2023-08-17T09:13:47;15.50;1.00
10336;DHT22;5213;53.548;9.930;2023-08-17T09:16:13;15.60;1.00
10336;DHT22;5213;53.548;9.930;2023-08-17T09:18:39;15.60;99.90
10336;DHT22;5213;53.548;9.930;2023-08-17T09:21:05;15.60;99.90
10336;DHT22;5213;53.548;9.930;2023-08-17T09:23:30;15.70;99.90
10336;DHT22;5213;53.548;9.930;2023-08-17T09:25:56;15.70;99.90
10336;DHT22;5213;53.548;9.930;2023-08-17T09:28:23;15.80;99.90
10336;DHT22;5213;53.548;9.930;2023-08-17T09:33:21;15.80;99.90
10336;DHT22;5213;53.548;9.930;2023-08-17T09:35:49;15.90;99.90
10336;DHT22;5213;53.548;9.930;2023-08-17T09:38:14;15.90;38.10
10336;DHT22;5213;53.548;9.930;2023-08-17T09:40:40;16.10;99.90
10336;DHT22;5213;53.548;9.930;2023-08-17T09:43:06;16.10;1.00
10336;DHT22;5213;53.548;9.930;2023-08-17T09:45:31;16.20;1.00
10336;DHT22;5213;53.548;9.930;2023-08-17T09:48:01;16.20;1.00
10336;DHT22;5213;53.548;9.930;2023-08-17T09:50:27;16.40;1.00
10336;DHT22;5213;53.548;9.930;2023-08-17T09:52:57;16.40;99.90
10336;DHT22;5213;53.548;9.930;2023-08-17T09:55:23;16.40;99.90
10336;DHT22;5213;53.548;9.930;2023-08-17T09:57:49;16.40;99.90
10336;DHT22;5213;53.548;9.930;2023-08-17T10:00:16;16.40;99.90
10336;DHT22;5213;53.548;9.930;2023-08-17T10:02:44;16.30;80.10
10336;DHT22;5213;53.548;9.930;2023-08-17T10:05:11;16.30;41.30
10336;DHT22;5213;53.548;9.930;2023-08-17T10:07:41;16.30;5.50
10336;DHT22;5213;53.548;9.930;2023-08-17T10:10:07;16.30;29.50
10336;DHT22;5213;53.548;9.930;2023-08-17T10:12:42;16.30;26.70
10336;DHT22;5213;53.548;9.930;2023-08-17T10:15:11;16.30;43.80
10336;DHT22;5213;53.548;9.930;2023-08-17T10:17:44;16.20;36.20
10336;DHT22;5213;53.548;9.930;2023-08-17T10:20:15;16.20;1.00
10336;DHT22;5213;53.548;9.930;2023-08-17T10:23:05;16.20;1.00
10336;DHT22;5213;53.548;9.930;2023-08-17T10:25:34;16.10;1.00
10336;DHT22;5213;53.548;9.930;2023-08-17T10:28:00;16.00;1.00
10336;DHT22;5213;53.548;9.930;2023-08-17T10:30:29;15.90;1.00
10336;DHT22;5213;53.548;9.930;2023-08-17T10:32:55;16.00;1.00
10336;DHT22;5213;53.548;9.930;2023-08-17T10:35:21;16.20;1.00
10336;DHT22;5213;53.548;9.930;2023-08-17T10:37:46;16.20;1.00
10336;DHT22;5213;53.548;9.930;2023-08-17T10:40:13;16.30;1.00
10336;DHT22;5213;53.548;9.930;2023-08-17T10:42:38;16.40;1.00
10336;DHT22;5213;53.548;9.930;2023-08-17T10:45:30;16.50;1.00
10336;DHT22;5213;53.548;9.930;2023-08-17T10:50:35;16.70;99.90
10336;DHT22;5213;53.548;9.930;2023-08-17T10:53:08;17.00;99.90
10336;DHT22;5213;53.548;9.930;2023-08-17T10:55:39;17.10;99.90
10336;DHT22;5213;53.548;9.930;2023-08-17T10:58:08;17.00;99.90
10336;DHT22;5213;53.548;9.930;2023-08-17T11:00:35;17.20;99.90
10336;DHT22;5213;53.548;9.930;2023-08-17T11:03:09;17.10;99.90
10336;DHT22;5213;53.548;9.930;2023-08-17T11:05:49;17.10;99.90
10336;DHT22;5213;53.548;9.930;2023-08-17T11:08:40;16.90;99.90
10336;DHT22;5213;53.548;9.930;2023-08-17T11:11:15;16.90;99.90
10336;DHT22;5213;53.548;9.930;2023-08-17T11:13:43;17.00;99.90
10336;DHT22;5213;53.548;9.930;2023-08-17T11:16:10;16.90;99.90
10336;DHT22;5213;53.548;9.930;2023-08-17T11:18:37;16.90;99.90
10336;DHT22;5213;53.548;9.930;2023-08-17T11:21:04;16.80;99.90
10336;DHT22;5213;53.548;9.930;2023-08-17T11:23:31;17.10;99.90
10336;DHT22;5213;53.548;9.930;2023-08-17T11:25:57;16.70;99.90
10336;DHT22;5213;53.548;9.930;2023-08-17T11:28:23;16.70;99.90
10336;DHT22;5213;53.548;9.930;2023-08-17T11:30:58;16.60;99.90
10336;DHT22;5213;53.548;9.930;2023-08-17T11:33:28;16.60;99.90
10336;DHT22;5213;53.548;9.930;2023-08-17T11:35:55;16.40;99.90
10336;DHT22;5213;53.548;9.930;2023-08-17T11:38:21;16.40;99.90
10336;DHT22;5213;53.548;9.930;2023-08-17T11:40:47;16.50;99.90
10336;DHT22;5213;53.548;9.930;2023-08-17T11:43:13;16.40;99.90
10336;DHT22;5213;53.548;9.930;2023-08-17T11:45:39;16.40;99.90
10336;DHT22;5213;53.548;9.930;2023-08-17T11:48:05;16.50;99.90
10336;DHT22;5213;53.548;9.930;2023-08-17T11:50:31;16.40;99.90
10336;DHT22;5213;53.548;9.930;2023-08-17T11:52:59;16.20;99.90
10336;DHT22;5213;53.548;9.930;2023-08-17T11:55:26;16.30;99.90
10336;DHT22;5213;53.548;9.930;2023-08-17T11:57:52;16.20;99.90
10336;DHT22;5213;53.548;9.930;2023-08-17T12:00:21;16.10;99.90
10336;DHT22;5213;53.548;9.930;2023-08-17T12:02:51;16.20;99.90
10336;DHT22;5213;53.548;9.930;2023-08-17T12:05:24;16.00;99.90
10336;DHT22;5213;53.548;9.930;2023-08-17T12:07:50;16.10;99.90
10336;DHT22;5213;53.548;9.930;2023-08-17T12:10:18;16.10;1.00
10336;DHT22;5213;53.548;9.930;2023-08-17T12:12:47;16.30;1.00
10336;DHT22;5213;53.548;9.930;2023-08-17T12:15:13;16.70;1.00
10336;DHT22;5213;53.548;9.930;2023-08-17T12:17:49;16.70;1.00
10336;DHT22;5213;53.548;9.930;2023-08-17T12:20:19;16.70;1.00
10336;DHT22;5213;53.548;9.930;2023-08-17T12:22:46;16.80;1.00
10336;DHT22;5213;53.548;9.930;2023-08-17T12:25:12;16.90;1.00
10336;DHT22;5213;53.548;9.930;2023-08-17T12:27:38;16.90;1.00
10336;DHT22;5213;53.548;9.930;2023-08-17T12:30:05;16.90;1.00
10336;DHT22;5213;53.548;9.930;2023-08-17T12:32:36;16.90;1.00
10336;DHT22;5213;53.548;9.930;2023-08-17T12:35:02;17.10;1.00
10336;DHT22;5213;53.548;9.930;2023-08-17T12:37:29;17.20;1.00
10336;DHT22;5213;53.548;9.930;2023-08-17T12:39:54;17.30;1.00
10336;DHT22;5213;53.548;9.930;2023-08-17T12:42:20;17.40;99.90
10336;DHT22;5213;53.548;9.930;2023-08-17T12:44:46;17.30;99.90
10336;DHT22;5213;53.548;9.930;2023-08-17T12:47:11;17.40;99.90
10336;DHT22;5213;53.548;9.930;2023-08-17T12:49:37;17.40;99.90
10336;DHT22;5213;53.548;9.930;2023-08-17T12:52:03;17.40;99.90
10336;DHT22;5213;53.548;9.930;2023-08-17T12:54:28;17.40;99.90
10336;DHT22;5213;53.548;9.930;2023-08-17T12:56:54;17.60;99.90
10336;DHT22;5213;53.548;9.930;2023-08-17T12:59:20;17.60;99.90
10336;DHT22;5213;53.548;9.930;2023-08-17T13:01:45;17.50;99.90
10336;DHT22;5213;53.548;9.930;2023-08-17T13:04:11;17.40;99.90
10336;DHT22;5213;53.548;9.930;2023-08-17T13:06:37;17.40;99.90
10336;DHT22;5213;53.548;9.930;2023-08-17T13:09:03;17.30;99.90
10336;DHT22;5213;53.548;9.930;2023-08-17T13:11:28;17.30;99.90
10336;DHT22;5213;53.548;9.930;2023-08-17T13:13:54;17.20;99.90
10336;DHT22;5213;53.548;9.930;2023-08-17T13:16:20;17.30;99.90
10336;DHT22;5213;53.548;9.930;2023-08-17T13:18:48;17.10;63.50
10336;DHT22;5213;53.548;9.930;2023-08-17T13:21:13;17.10;86.20
10336;DHT22;5213;53.548;9.930;2023-08-17T13:23:41;17.10;77.30
10336;DHT22;5213;53.548;9.930;2023-08-17T13:26:07;17.10;50.20
10336;DHT22;5213;53.548;9.930;2023-08-17T13:28:32;16.80;1.00
10336;DHT22;5213;53.548;9.930;2023-08-17T13:30:58;16.60;1.00
10336;DHT22;5213;53.548;9.930;2023-08-17T13:33:23;16.50;1.00
10336;DHT22;5213;53.548;9.930;2023-08-17T13:35:49;16.30;1.00
10336;DHT22;5213;53.548;9.930;2023-08-17T13:38:24;16.10;1.00
10336;DHT22;5213;53.548;9.930;2023-08-17T13:40:50;15.90;1.00
10336;DHT22;5213;53.548;9.930;2023-08-17T13:43:16;15.80;1.00
10336;DHT22;5213;53.548;9.930;2023-08-17T13:45:41;15.80;1.00
10336;DHT22;5213;53.548;9.930;2023-08-17T13:48:08;15.80;1.00
10336;DHT22;5213;53.548;9.930;2023-08-17T13:50:36;15.90;1.00
10336;DHT22;5213;53.548;9.930;2023-08-17T13:53:02;16.10;1.00
10336;DHT22;5213;53.548;9.930;2023-08-17T13:55:28;16.40;1.00
10336;DHT22;5213;53.548;9.930;2023-08-17T13:57:54;16.60;1.00
10336;DHT22;5213;53.548;9.930;2023-08-17T14:00:22;16.80;1.00
10336;DHT22;5213;53.548;9.930;2023-08-17T14:02:47;17.20;1.00
10336;DHT22;5213;53.548;9.930;2023-08-17T14:05:13;17.30;1.00
10336;DHT22;5213;53.548;9.930;2023-08-17T14:07:39;17.30;1.00
10336;DHT22;5213;53.548;9.930;2023-08-17T14:10:05;17.30;1.00
10336;DHT22;5213;53.548;9.930;2023-08-17T14:12:31;17.30;1.00
10336;DHT22;5213;53.548;9.930;2023-08-17T14:14:56;17.40;1.00
10336;DHT22;5213;53.548;9.930;2023-08-17T14:17:22;17.30;1.00
10336;DHT22;5213;53.548;9.930;2023-08-17T14:19:47;17.20;99.90
10336;DHT22;5213;53.548;9.930;2023-08-17T14:22:13;17.00;99.90
10336;DHT22;5213;53.548;9.930;2023-08-17T14:24:39;16.90;99.90
10336;DHT22;5213;53.548;9.930;2023-08-17T14:27:04;16.80;99.90
10336;DHT22;5213;53.548;9.930;2023-08-17T14:29:30;16.80;99.90
10336;DHT22;5213;53.548;9.930;2023-08-17T14:31:56;16.80;99.90
10336;DHT22;5213;53.548;9.930;2023-08-17T14:34:21;16.80;99.90
10336;DHT22;5213;53.548;9.930;2023-08-17T14:36:47;16.80;99.90
10336;DHT22;5213;53.548;9.930;2023-08-17T14:39:13;16.80;99.90
10336;DHT22;5213;53.548;9.930;2023-08-17T14:41:38;16.70;99.90
10336;DHT22;5213;53.548;9.930;2023-08-17T14:44:04;16.70;99.90
10336;DHT22;5213;53.548;9.930;2023-08-17T14:46:30;16.80;99.90
10336;DHT22;5213;53.548;9.930;2023-08-17T14:48:56;16.70;99.90
10336;DHT22;5213;53.548;9.930;2023-08-17T14:51:21;16.80;99.90
10336;DHT22;5213;53.548;9.930;2023-08-17T14:53:48;17.00;99.90
10336;DHT22;5213;53.548;9.930;2023-08-17T14:56:13;16.90;99.90
10336;DHT22;5213;53.548;9.930;2023-08-17T14:58:39;17.00;99.90
10336;DHT22;5213;53.548;9.930;2023-08-17T15:01:04;17.10;99.90
10336;DHT22;5213;53.548;9.930;2023-08-17T15:03:30;17.00;99.90
10336;DHT22;5213;53.548;9.930;2023-08-17T15:05:56;17.00;99.90
10336;DHT22;5213;53.548;9.930;2023-08-17T15:08:21;16.90;99.90
10336;DHT22;5213;53.548;9.930;2023-08-17T15:10:47;16.80;99.90
10336;DHT22;5213;53.548;9.930;2023-08-17T15:13:14;16.80;99.90
10336;DHT22;5213;53.548;9.930;2023-08-17T15:15:41;16.70;99.90
10336;DHT22;5213;53.548;9.930;2023-08-17T15:18:08;16.70;99.90
10336;DHT22;5213;53.548;9.930;2023-08-17T15:20:34;16.70;99.90
10336;DHT22;5213;53.548;9.930;2023-08-17T15:22:59;16.60;99.90
10336;DHT22;5213;53.548;9.930;2023-08-17T15:25:25;16.60;99.90
10336;DHT22;5213;53.548;9.930;2023-08-17T15:27:51;16.60;99.90
10336;DHT22;5213;53.548;9.930;2023-08-17T15:30:16;16.60;99.90
10336;DHT22;5213;53.548;9.930;2023-08-17T15:32:42;16.60;99.90
10336;DHT22;5213;53.548;9.930;2023-08-17T15:35:10;16.60;99.90
10336;DHT22;5213;53.548;9.930;2023-08-17T15:37:39;16.60;99.90
10336;DHT22;5213;53.548;9.930;2023-08-17T15:40:05;16.60;99.90
10336;DHT22;5213;53.548;9.930;2023-08-17T15:42:31;16.60;99.90
10336;DHT22;5213;53.548;9.930;2023-08-17T15:44:57;16.60;99.90
10336;DHT22;5213;53.548;9.930;2023-08-17T15:47:22;16.70;99.90
10336;DHT22;5213;53.548;9.930;2023-08-17T15:49:48;16.70;99.90
10336;DHT22;5213;53.548;9.930;2023-08-17T15:52:14;16.70;99.90
10336;DHT22;5213;53.548;9.930;2023-08-17T15:54:39;16.70;99.90
10336;DHT22;5213;53.548;9.930;2023-08-17T15:57:05;16.70;99.90
10336;DHT22;5213;53.548;9.930;2023-08-17T15:59:31;16.70;99.90
10336;DHT22;5213;53.548;9.930;2023-08-17T16:01:56;16.70;99.90
10336;DHT22;5213;53.548;9.930;2023-08-17T16:04:22;16.70;99.90
10336;DHT22;5213;53.548;9.930;2023-08-17T16:06:48;16.80;99.90
10336;DHT22;5213;53.548;9.930;2023-08-17T16:09:13;16.80;99.90
10336;DHT22;5213;53.548;9.930;2023-08-17T16:11:39;16.80;99.90
10336;DHT22;5213;53.548;9.930;2023-08-17T16:14:05;16.80;99.90
10336;DHT22;5213;53.548;9.930;2023-08-17T16:16:31;16.80;99.90
10336;DHT22;5213;53.548;9.930;2023-08-17T16:18:57;16.80;1.00
10336;DHT22;5213;53.548;9.930;2023-08-17T16:21:22;16.70;1.00
10336;DHT22;5213;53.548;9.930;2023-08-17T16:23:48;16.70;1.00
10336;DHT22;5213;53.548;9.930;2023-08-17T16:26:13;16.80;1.00
10336;DHT22;5213;53.548;9.930;2023-08-17T16:28:39;16.80;1.00
10336;DHT22;5213;53.548;9.930;2023-08-17T16:31:05;16.80;1.00
10336;DHT22;5213;53.548;9.930;2023-08-17T16:33:30;16.80;1.00
10336;DHT22;5213;53.548;9.930;2023-08-17T16:35:56;16.90;1.00
10336;DHT22;5213;53.548;9.930;2023-08-17T16:38:22;16.90;1.00
10336;DHT22;5213;53.548;9.930;2023-08-17T16:40:49;16.90;1.00
10336;DHT22;5213;53.548;9.930;2023-08-17T16:43:15;16.90;1.00
10336;DHT22;5213;53.548;9.930;2023-08-17T16:45:41;16.90;1.00
10336;DHT22;5213;53.548;9.930;2023-08-17T16:48:06;17.00;99.90
10336;DHT22;5213;53.548;9.930;2023-08-17T16:50:32;16.90;99.90
10336;DHT22;5213;53.548;9.930;2023-08-17T16:52:58;17.00;99.90
10336;DHT22;5213;53.548;9.930;2023-08-17T16:55:23;16.90;99.90
10336;DHT22;5213;53.548;9.930;2023-08-17T16:57:49;16.90;99.90
10336;DHT22;5213;53.548;9.930;2023-08-17T17:00:15;16.80;99.90
10336;DHT22;5213;53.548;9.930;2023-08-17T17:02:41;16.90;99.90
10336;DHT22;5213;53.548;9.930;2023-08-17T17:05:07;16.90;99.90
10336;DHT22;5213;53.548;9.930;2023-08-17T17:07:32;16.90;99.90
10336;DHT22;5213;53.548;9.930;2023-08-17T17:09:58;16.80;99.90
10336;DHT22;5213;53.548;9.930;2023-08-17T17:12:24;16.90;99.90
10336;DHT22;5213;53.548;9.930;2023-08-17T17:14:49;16.80;99.90
10336;DHT22;5213;53.548;9.930;2023-08-17T17:17:15;16.80;99.90
10336;DHT22;5213;53.548;9.930;2023-08-17T17:19:41;16.80;99.90
10336;DHT22;5213;53.548;9.930;2023-08-17T17:22:06;16.70;99.90
10336;DHT22;5213;53.548;9.930;2023-08-17T17:24:32;16.70;99.90
10336;DHT22;5213;53.548;9.930;2023-08-17T17:26:58;16.80;99.90
10336;DHT22;5213;53.548;9.930;2023-08-17T17:29:24;16.80;99.90
10336;DHT22;5213;53.548;9.930;2023-08-17T17:31:50;16.70;99.90
10336;DHT22;5213;53.548;9.930;2023-08-17T17:34:16;16.70;99.90
10336;DHT22;5213;53.548;9.930;2023-08-17T17:36:41;16.60;99.90
10336;DHT22;5213;53.548;9.930;2023-08-17T17:39:07;16.60;99.90
10336;DHT22;5213;53.548;9.930;2023-08-17T17:41:33;16.60;99.90
10336;DHT22;5213;53.548;9.930;2023-08-17T17:43:58;16.60;99.90
10336;DHT22;5213;53.548;9.930;2023-08-17T17:46:24;16.50;99.90
10336;DHT22;5213;53.548;9.930;2023-08-17T17:48:49;16.60;99.90
10336;DHT22;5213;53.548;9.930;2023-08-17T17:51:15;16.50;99.90
10336;DHT22;5213;53.548;9.930;2023-08-17T17:53:40;16.50;1.00
10336;DHT22;5213;53.548;9.930;2023-08-17T17:56:10;16.50;1.00
10336;DHT22;5213;53.548;9.930;2023-08-17T17:58:38;16.60;1.00
10336;DHT22;5213;53.548;9.930;2023-08-17T18:01:03;16.60;1.00
10336;DHT22;5213;53.548;9.930;2023-08-17T18:03:29;16.60;1.00
10336;DHT22;5213;53.548;9.930;2023-08-17T18:05:55;16.60;1.00
10336;DHT22;5213;53.548;9.930;2023-08-17T18:08:20;16.60;1.00
10336;DHT22;5213;53.548;9.930;2023-08-17T18:10:46;16.60;1.00
10336;DHT22;5213;53.548;9.930;2023-08-17T18:13:12;16.60;1.00
10336;DHT22;5213;53.548;9.930;2023-08-17T18:15:38;16.60;1.00
10336;DHT22;5213;53.548;9.930;2023-08-17T18:18:05;16.60;1.00
10336;DHT22;5213;53.548;9.930;2023-08-17T18:20:31;16.60;1.00
10336;DHT22;5213;53.548;9.930;2023-08-17T18:22:57;16.60;1.00
10336;DHT22;5213;53.548;9.930;2023-08-17T18:25:23;16.60;1.00
10336;DHT22;5213;53.548;9.930;2023-08-17T18:27:50;16.60;1.00
10336;DHT22;5213;53.548;9.930;2023-08-17T18:30:16;16.60;1.00
10336;DHT22;5213;53.548;9.930;2023-08-17T18:32:41;16.60;1.00
10336;DHT22;5213;53.548;9.930;2023-08-17T18:35:07;16.60;1.00
10336;DHT22;5213;53.548;9.930;2023-08-17T18:37:33;16.60;1.00
10336;DHT22;5213;53.548;9.930;2023-08-17T18:39:59;16.60;1.00
10336;DHT22;5213;53.548;9.930;2023-08-17T18:42:25;16.60;1.00
10336;DHT22;5213;53.548;9.930;2023-08-17T18:44:53;16.60;1.00
10336;DHT22;5213;53.548;9.930;2023-08-17T18:47:20;16.50;1.00
10336;DHT22;5213;53.548;9.930;2023-08-17T18:49:47;16.60;1.00
10336;DHT22;5213;53.548;9.930;2023-08-17T18:52:12;16.60;1.00
10336;DHT22;5213;53.548;9.930;2023-08-17T18:54:38;16.60;1.00
10336;DHT22;5213;53.548;9.930;2023-08-17T18:57:04;16.60;1.00
10336;DHT22;5213;53.548;9.930;2023-08-17T18:59:30;16.60;1.00
10336;DHT22;5213;53.548;9.930;2023-08-17T19:01:55;16.60;1.00
10336;DHT22;5213;53.548;9.930;2023-08-17T19:04:21;16.60;1.00
10336;DHT22;5213;53.548;9.930;2023-08-17T19:06:46;16.60;1.00
10336;DHT22;5213;53.548;9.930;2023-08-17T19:09:12;16.60;1.00
10336;DHT22;5213;53.548;9.930;2023-08-17T19:11:38;16.60;1.00
10336;DHT22;5213;53.548;9.930;2023-08-17T19:14:03;16.60;1.00
10336;DHT22;5213;53.548;9.930;2023-08-17T19:16:29;16.60;1.00
10336;DHT22;5213;53.548;9.930;2023-08-17T19:18:56;16.60;1.00
10336;DHT22;5213;53.548;9.930;2023-08-17T19:21:22;16.60;1.00
10336;DHT22;5213;53.548;9.930;2023-08-17T19:23:48;16.60;1.00
10336;DHT22;5213;53.548;9.930;2023-08-17T19:26:13;16.70;1.00
10336;DHT22;5213;53.548;9.930;2023-08-17T19:28:39;16.70;1.00
10336;DHT22;5213;53.548;9.930;2023-08-17T19:31:05;16.70;1.00
10336;DHT22;5213;53.548;9.930;2023-08-17T19:33:30;16.70;1.00
10336;DHT22;5213;53.548;9.930;2023-08-17T19:35:56;16.70;1.00
10336;DHT22;5213;53.548;9.930;2023-08-17T19:38:21;16.70;1.00
10336;DHT22;5213;53.548;9.930;2023-08-17T19:40:48;16.80;1.00
10336;DHT22;5213;53.548;9.930;2023-08-17T19:43:13;16.90;1.00
10336;DHT22;5213;53.548;9.930;2023-08-17T19:45:40;16.90;1.00
10336;DHT22;5213;53.548;9.930;2023-08-17T19:48:06;16.80;1.00
10336;DHT22;5213;53.548;9.930;2023-08-17T19:50:32;16.80;1.00
10336;DHT22;5213;53.548;9.930;2023-08-17T19:52:58;16.80;1.00
10336;DHT22;5213;53.548;9.930;2023-08-17T19:55:23;16.80;1.00
10336;DHT22;5213;53.548;9.930;2023-08-17T19:57:49;16.80;1.00
10336;DHT22;5213;53.548;9.930;2023-08-17T20:00:15;16.80;1.00
10336;DHT22;5213;53.548;9.930;2023-08-17T20:02:40;16.90;1.00
10336;DHT22;5213;53.548;9.930;2023-08-17T20:05:07;16.90;1.00
10336;DHT22;5213;53.548;9.930;2023-08-17T20:07:34;16.90;1.00
10336;DHT22;5213;53.548;9.930;2023-08-17T20:10:00;16.90;1.00
10336;DHT22;5213;53.548;9.930;2023-08-17T20:12:26;17.10;1.00
10336;DHT22;5213;53.548;9.930;2023-08-17T20:14:51;16.90;1.00
10336;DHT22;5213;53.548;9.930;2023-08-17T20:17:17;16.90;1.00
10336;DHT22;5213;53.548;9.930;2023-08-17T20:19:43;16.90;1.00
10336;DHT22;5213;53.548;9.930;2023-08-17T20:22:09;16.90;1.00
10336;DHT22;5213;53.548;9.930;2023-08-17T20:24:35;16.90;1.00
10336;DHT22;5213;53.548;9.930;2023-08-17T20:27:01;17.00;1.00
10336;DHT22;5213;53.548;9.930;2023-08-17T20:29:27;17.00;1.00
10336;DHT22;5213;53.548;9.930;2023-08-17T20:31:53;17.00;99.90
10336;DHT22;5213;53.548;9.930;2023-08-17T20:34:19;17.10;99.90
10336;DHT22;5213;53.548;9.930;2023-08-17T20:36:44;17.10;99.90
10336;DHT22;5213;53.548;9.930;2023-08-17T20:39:10;17.10;99.90
10336;DHT22;5213;53.548;9.930;2023-08-17T20:41:36;17.10;99.90
10336;DHT22;5213;53.548;9.930;2023-08-17T20:44:02;17.20;99.90
10336;DHT22;5213;53.548;9.930;2023-08-17T20:46:28;17.10;99.90
10336;DHT22;5213;53.548;9.930;2023-08-17T20:48:58;17.10;99.90
10336;DHT22;5213;53.548;9.930;2023-08-17T20:51:24;17.20;99.90
10336;DHT22;5213;53.548;9.930;2023-08-17T20:53:50;17.20;99.90
10336;DHT22;5213;53.548;9.930;2023-08-17T20:56:17;17.20;99.90
10336;DHT22;5213;53.548;9.930;2023-08-17T20:58:43;17.20;99.90
10336;DHT22;5213;53.548;9.930;2023-08-17T21:01:09;17.20;99.90
10336;DHT22;5213;53.548;9.930;2023-08-17T21:03:35;17.20;99.90
10336;DHT22;5213;53.548;9.930;2023-08-17T21:06:02;17.20;99.90
10336;DHT22;5213;53.548;9.930;2023-08-17T21:08:28;17.30;99.90
10336;DHT22;5213;53.548;9.930;2023-08-17T21:10:54;17.10;99.90
10336;DHT22;5213;53.548;9.930;2023-08-17T21:13:19;17.10;99.90
10336;DHT22;5213;53.548;9.930;2023-08-17T21:15:45;17.10;99.90
10336;DHT22;5213;53.548;9.930;2023-08-17T21:18:10;17.00;99.90
10336;DHT22;5213;53.548;9.930;2023-08-17T21:20:36;17.20;99.90
10336;DHT22;5213;53.548;9.930;2023-08-17T21:23:04;17.00;99.90
10336;DHT22;5213;53.548;9.930;2023-08-17T21:25:30;16.90;99.90
10336;DHT22;5213;53.548;9.930;2023-08-17T21:27:55;16.90;99.90
10336;DHT22;5213;53.548;9.930;2023-08-17T21:30:21;16.90;99.90
10336;DHT22;5213;53.548;9.930;2023-08-17T21:32:47;16.90;99.90
10336;DHT22;5213;53.548;9.930;2023-08-17T21:35:12;16.80;99.90
10336;DHT22;5213;53.548;9.930;2023-08-17T21:37:38;16.80;99.90
10336;DHT22;5213;53.548;9.930;2023-08-17T21:40:06;16.80;99.90
10336;DHT22;5213;53.548;9.930;2023-08-17T21:42:31;16.80;99.90
10336;DHT22;5213;53.548;9.930;2023-08-17T21:44:57;16.90;99.90
10336;DHT22;5213;53.548;9.930;2023-08-17T21:47:23;16.70;99.90
10336;DHT22;5213;53.548;9.930;2023-08-17T21:49:49;16.70;99.90
10336;DHT22;5213;53.548;9.930;2023-08-17T21:52:15;16.80;99.90
10336;DHT22;5213;53.548;9.930;2023-08-17T21:54:41;16.70;99.90
10336;DHT22;5213;53.548;9.930;2023-08-17T21:57:06;16.70;99.90
10336;DHT22;5213;53.548;9.930;2023-08-17T21:59:32;16.70;99.90